Time;durP1;ratioP1;P1;durP2;ratioP2;P2;SDS_P1;SDS_P2;PMS_P1;PMS_P2;Temp;Humidity;BMP_temperature;BMP_pressure;BME280_temperature;BME280_humidity;BME280_pressure;Samples;Min_cycle;Max_cycle;Signal;HPM_P1;HPM_P2
2021/10/08 00:02:12;;;;;;;6.68;4.10;;;;;;;;;;5001838;28;20036;-62
2021/10/08 00:04:56;;;;;;;4.95;3.90;;;;;;;;;;5009739;28;20508;-65
2021/10/08 00:07:40;;;;;;;6.28;3.97;;;;;;;;;;5002185;28;20349;-62
2021/10/08 00:10:24;;;;;;;5.85;3.97;;;;;;;;;;5004009;28;20061;-63
2021/10/08 00:13:08;;;;;;;6.38;3.78;;;;;;;;;;5004593;28;20116;-64
2021/10/08 00:15:52;;;;;;;6.63;3.42;;;;;;;;;;5000325;28;20265;-61
2021/10/08 00:18:36;;;;;;;7.75;3.92;;;;;;;;;;4999247;28;20041;-62
2021/10/08 00:21:20;;;;;;;5.60;3.42;;;;;;;;;;5002431;28;20059;-61
2021/10/08 00:24:04;;;;;;;7.03;4.03;;;;;;;;;;5004555;28;20040;-63
2021/10/08 00:26:48;;;;;;;5.28;4.25;;;;;;;;;;5006778;28;20037;-63
2021/10/08 00:29:32;;;;;;;5.65;3.40;;;;;;;;;;4993960;28;20034;-65
2021/10/08 00:32:16;;;;;;;7.07;4.10;;;;;;;;;;5007085;28;20562;-69
2021/10/08 00:35:00;;;;;;;7.68;3.97;;;;;;;;;;5011532;28;20087;-68
2021/10/08 00:37:44;;;;;;;9.52;3.38;;;;;;;;;;5002247;28;20602;-68
2021/10/08 00:40:28;;;;;;;7.05;3.42;;;;;;;;;;4994745;28;20176;-69
2021/10/08 00:43:16;;;;;;;5.68;3.40;;;;;;;;;;5002640;28;20340;-69
2021/10/08 00:46:01;;;;;;;7.68;3.90;;;;;;;;;;5007608;28;20396;-69
2021/10/08 00:48:48;;;;;;;5.93;3.63;;;;;;;;;;5005580;28;20104;-67
2021/10/08 00:51:32;;;;;;;6.15;3.58;;;;;;;;;;5005104;28;20080;-65
2021/10/08 00:54:16;;;;;;;6.57;3.40;;;;;;;;;;4999307;28;20494;-67
2021/10/08 00:57:00;;;;;;;6.97;3.28;;;;;;;;;;5001971;28;20073;-63
2021/10/08 00:59:44;;;;;;;5.40;3.20;;;;;;;;;;4998727;28;20053;-64
2021/10/08 01:02:29;;;;;;;5.88;3.40;;;;;;;;;;5005693;28;20033;-63
2021/10/08 01:05:13;;;;;;;9.25;3.55;;;;;;;;;;4999835;28;20105;-64
2021/10/08 01:07:57;;;;;;;7.32;3.88;;;;;;;;;;5006732;28;20121;-66
2021/10/08 01:10:41;;;;;;;4.05;3.22;;;;;;;;;;5007156;28;20032;-65
2021/10/08 01:13:26;;;;;;;6.45;3.90;;;;;;;;;;4998803;28;20069;-62
2021/10/08 01:16:09;;;;;;;8.57;4.07;;;;;;;;;;5004050;28;20076;-62
2021/10/08 01:18:53;;;;;;;5.65;3.88;;;;;;;;;;4999058;28;20511;-64
2021/10/08 01:21:37;;;;;;;6.45;3.47;;;;;;;;;;5003454;28;20044;-66
2021/10/08 01:24:21;;;;;;;7.03;4.03;;;;;;;;;;5006406;28;20095;-63
2021/10/08 01:27:06;;;;;;;6.85;4.07;;;;;;;;;;4995683;28;20041;-63
2021/10/08 01:29:52;;;;;;;7.38;3.88;;;;;;;;;;5008652;28;20484;-64
2021/10/08 01:32:36;;;;;;;6.60;4.20;;;;;;;;;;5002140;28;20493;-64
2021/10/08 01:35:20;;;;;;;6.13;3.83;;;;;;;;;;5001396;28;20077;-64
2021/10/08 01:38:05;;;;;;;4.93;3.65;;;;;;;;;;4997544;28;20076;-63
2021/10/08 01:40:49;;;;;;;7.95;4.05;;;;;;;;;;5007859;28;20065;-67
2021/10/08 01:43:33;;;;;;;7.32;4.00;;;;;;;;;;5001649;28;20092;-66
2021/10/08 01:46:16;;;;;;;6.32;3.97;;;;;;;;;;4999908;28;20076;-69
2021/10/08 01:49:01;;;;;;;7.07;4.45;;;;;;;;;;5000461;28;20041;-68
2021/10/08 01:51:45;;;;;;;5.95;3.97;;;;;;;;;;5001286;28;20079;-68
2021/10/08 01:54:29;;;;;;;5.78;3.60;;;;;;;;;;5007851;28;20254;-69
2021/10/08 01:57:13;;;;;;;6.72;4.13;;;;;;;;;;4999612;28;20036;-69
2021/10/08 01:59:57;;;;;;;5.70;3.83;;;;;;;;;;5004823;28;20044;-68
2021/10/08 02:02:41;;;;;;;6.43;3.90;;;;;;;;;;5002580;28;20071;-65
2021/10/08 02:05:25;;;;;;;7.45;4.05;;;;;;;;;;5012501;28;20033;-63
2021/10/08 02:08:09;;;;;;;6.80;4.10;;;;;;;;;;4994864;28;20106;-63
2021/10/08 02:10:53;;;;;;;6.32;3.67;;;;;;;;;;4995466;28;20036;-63
2021/10/08 02:13:37;;;;;;;4.78;3.63;;;;;;;;;;4991698;28;20107;-63
2021/10/08 02:16:21;;;;;;;6.03;4.05;;;;;;;;;;5000594;28;20073;-64
2021/10/08 02:19:04;;;;;;;7.20;4.40;;;;;;;;;;5001908;28;20037;-64
2021/10/08 02:21:49;;;;;;;6.90;4.22;;;;;;;;;;5005309;28;20028;-64
2021/10/08 02:24:33;;;;;;;6.93;4.18;;;;;;;;;;5000394;28;20100;-63
2021/10/08 02:27:18;;;;;;;9.40;4.13;;;;;;;;;;4993998;28;20061;-61
2021/10/08 02:30:02;;;;;;;6.15;3.92;;;;;;;;;;5000313;28;20044;-61
2021/10/08 02:32:46;;;;;;;4.72;3.28;;;;;;;;;;5000127;28;20040;-62
2021/10/08 02:35:30;;;;;;;6.57;3.67;;;;;;;;;;5002270;28;20033;-60
2021/10/08 02:38:14;;;;;;;5.68;3.58;;;;;;;;;;4997578;28;20114;-68
2021/10/08 02:40:58;;;;;;;6.05;4.35;;;;;;;;;;4994527;28;20085;-63
2021/10/08 02:43:42;;;;;;;5.18;3.50;;;;;;;;;;4997605;28;20077;-62
2021/10/08 02:46:26;;;;;;;10.82;4.80;;;;;;;;;;5001781;28;20550;-63
2021/10/08 02:49:10;;;;;;;8.38;4.90;;;;;;;;;;4995140;28;20072;-62
2021/10/08 02:51:54;;;;;;;5.47;3.78;;;;;;;;;;5009358;28;20379;-61
2021/10/08 02:54:37;;;;;;;5.95;4.55;;;;;;;;;;4993927;28;20496;-63
2021/10/08 02:57:21;;;;;;;8.20;4.32;;;;;;;;;;5008209;28;20095;-61
2021/10/08 03:00:06;;;;;;;8.50;4.35;;;;;;;;;;4997548;28;20049;-64
2021/10/08 03:02:50;;;;;;;7.82;4.78;;;;;;;;;;4998000;28;20119;-62
2021/10/08 03:05:34;;;;;;;8.10;3.92;;;;;;;;;;4999585;28;20059;-65
2021/10/08 03:08:18;;;;;;;6.15;3.95;;;;;;;;;;4998707;28;20266;-63
2021/10/08 03:11:02;;;;;;;5.35;3.70;;;;;;;;;;4997301;28;20083;-64
2021/10/08 03:13:46;;;;;;;4.95;3.78;;;;;;;;;;5003482;28;20849;-63
2021/10/08 03:16:30;;;;;;;8.30;4.75;;;;;;;;;;5004676;28;20080;-68
2021/10/08 03:19:14;;;;;;;6.80;4.82;;;;;;;;;;4996915;28;20064;-68
2021/10/08 03:21:58;;;;;;;6.72;4.45;;;;;;;;;;4999723;28;20420;-68
2021/10/08 03:24:42;;;;;;;7.20;4.70;;;;;;;;;;5007151;28;20037;-67
2021/10/08 03:27:26;;;;;;;4.35;3.33;;;;;;;;;;5003438;28;20033;-66
2021/10/08 03:30:11;;;;;;;8.98;4.55;;;;;;;;;;5005127;28;20439;-67
2021/10/08 03:32:55;;;;;;;7.25;4.03;;;;;;;;;;5003983;28;20089;-68
2021/10/08 03:35:42;;;;;;;8.00;4.32;;;;;;;;;;5011086;28;20470;-62
2021/10/08 03:38:30;;;;;;;8.70;4.65;;;;;;;;;;5011364;28;20033;-63
2021/10/08 03:41:17;;;;;;;8.80;4.60;;;;;;;;;;5005192;28;20254;-61
2021/10/08 03:44:02;;;;;;;8.82;5.47;;;;;;;;;;4999161;28;20084;-65
2021/10/08 03:46:54;;;;;;;6.68;5.10;;;;;;;;;;5007529;28;20048;-64
2021/10/08 03:49:39;;;;;;;7.22;5.07;;;;;;;;;;4995583;28;20064;-64
2021/10/08 03:52:23;;;;;;;7.05;4.38;;;;;;;;;;5009743;28;20133;-68
2021/10/08 03:55:07;;;;;;;5.93;4.70;;;;;;;;;;5014182;28;20276;-65
2021/10/08 03:57:51;;;;;;;10.75;4.75;;;;;;;;;;4997215;28;20162;-64
2021/10/08 04:00:35;;;;;;;7.95;4.75;;;;;;;;;;5003576;28;20069;-65
2021/10/08 04:03:19;;;;;;;7.18;4.05;;;;;;;;;;5000876;28;20052;-64
2021/10/08 04:06:03;;;;;;;7.32;4.68;;;;;;;;;;5009524;28;20087;-64
2021/10/08 04:08:47;;;;;;;9.25;4.95;;;;;;;;;;5007482;28;20539;-65
2021/10/08 04:11:30;;;;;;;9.05;5.28;;;;;;;;;;5002099;28;20084;-63
2021/10/08 04:14:14;;;;;;;7.63;5.00;;;;;;;;;;5006266;28;20076;-68
2021/10/08 04:16:58;;;;;;;9.10;5.70;;;;;;;;;;5000089;28;20057;-69
2021/10/08 04:19:42;;;;;;;7.35;5.10;;;;;;;;;;5001231;28;20829;-68
2021/10/08 04:22:26;;;;;;;7.50;5.07;;;;;;;;;;4997082;28;20037;-70
2021/10/08 04:25:10;;;;;;;9.23;4.78;;;;;;;;;;5004974;28;20277;-68
2021/10/08 04:27:54;;;;;;;6.28;4.55;;;;;;;;;;5006615;28;20085;-69
2021/10/08 04:30:38;;;;;;;8.85;5.15;;;;;;;;;;5004592;28;20032;-64
2021/10/08 04:33:23;;;;;;;7.05;5.18;;;;;;;;;;5002499;28;20169;-63
2021/10/08 04:36:07;;;;;;;8.77;4.72;;;;;;;;;;5004863;28;20041;-63
2021/10/08 04:38:51;;;;;;;8.75;5.00;;;;;;;;;;5000274;28;20045;-64
2021/10/08 04:41:35;;;;;;;8.73;5.72;;;;;;;;;;5004968;28;20546;-64
2021/10/08 04:44:19;;;;;;;7.13;4.70;;;;;;;;;;5002761;28;20081;-63
2021/10/08 04:47:04;;;;;;;9.05;4.90;;;;;;;;;;4998689;28;20084;-65
2021/10/08 04:49:48;;;;;;;7.28;4.90;;;;;;;;;;5007128;28;20029;-64
2021/10/08 04:52:32;;;;;;;8.38;4.85;;;;;;;;;;5004048;28;20053;-65
2021/10/08 04:55:16;;;;;;;8.50;5.10;;;;;;;;;;5000661;28;20053;-64
2021/10/08 04:58:00;;;;;;;8.48;4.82;;;;;;;;;;5005771;28;20033;-66
2021/10/08 05:00:45;;;;;;;9.02;4.80;;;;;;;;;;5011104;28;20615;-62
2021/10/08 05:03:29;;;;;;;6.18;4.60;;;;;;;;;;5006642;28;20033;-61
2021/10/08 05:06:13;;;;;;;8.63;6.20;;;;;;;;;;5007725;28;20105;-69
2021/10/08 05:08:57;;;;;;;7.47;4.80;;;;;;;;;;4996910;28;20436;-63
2021/10/08 05:11:41;;;;;;;9.90;5.53;;;;;;;;;;5003708;28;20088;-63
2021/10/08 05:14:25;;;;;;;7.75;5.18;;;;;;;;;;5000308;28;20754;-63
2021/10/08 05:17:09;;;;;;;9.80;5.85;;;;;;;;;;5001582;28;20036;-63
2021/10/08 05:19:53;;;;;;;9.43;5.93;;;;;;;;;;5002660;28;20036;-64
2021/10/08 05:22:37;;;;;;;7.07;5.07;;;;;;;;;;5007147;28;20061;-64
2021/10/08 05:25:21;;;;;;;8.13;5.70;;;;;;;;;;4994154;28;20033;-66
2021/10/08 05:28:05;;;;;;;9.45;5.65;;;;;;;;;;4999390;28;20057;-65
2021/10/08 05:30:48;;;;;;;12.77;7.15;;;;;;;;;;5003548;28;20093;-64
2021/10/08 05:33:32;;;;;;;7.90;5.80;;;;;;;;;;5007564;28;20425;-64
2021/10/08 05:36:16;;;;;;;9.43;5.90;;;;;;;;;;4991273;28;20095;-65
2021/10/08 05:39:00;;;;;;;10.65;7.13;;;;;;;;;;4996124;28;20535;-64
2021/10/08 05:41:44;;;;;;;8.43;5.53;;;;;;;;;;5000861;28;20091;-67
2021/10/08 05:44:28;;;;;;;9.63;5.63;;;;;;;;;;5003019;28;20033;-64
2021/10/08 05:47:12;;;;;;;8.63;6.00;;;;;;;;;;4997148;28;20080;-66
2021/10/08 05:49:56;;;;;;;10.00;5.65;;;;;;;;;;5003088;28;20034;-67
2021/10/08 05:52:40;;;;;;;9.18;6.47;;;;;;;;;;5002707;28;20172;-68
2021/10/08 05:55:24;;;;;;;10.30;6.22;;;;;;;;;;4996586;28;20025;-68
2021/10/08 05:58:08;;;;;;;8.48;5.35;;;;;;;;;;5002748;28;20154;-67
2021/10/08 06:00:52;;;;;;;8.57;6.57;;;;;;;;;;5001297;28;20048;-64
2021/10/08 06:03:39;;;;;;;11.13;6.95;;;;;;;;;;5010876;28;20048;-65
2021/10/08 06:06:22;;;;;;;13.77;8.20;;;;;;;;;;5002330;28;20068;-66
2021/10/08 06:09:06;;;;;;;11.60;7.85;;;;;;;;;;5003804;28;20036;-66
2021/10/08 06:11:50;;;;;;;9.63;6.18;;;;;;;;;;4998988;28;20623;-64
2021/10/08 06:14:34;;;;;;;11.38;6.15;;;;;;;;;;5002416;28;20193;-64
2021/10/08 06:17:18;;;;;;;9.98;6.45;;;;;;;;;;5000755;28;20083;-64
2021/10/08 06:20:06;;;;;;;8.73;6.55;;;;;;;;;;5004621;28;20044;-67
2021/10/08 06:22:49;;;;;;;12.95;7.32;;;;;;;;;;4995912;28;20397;-63
2021/10/08 06:25:33;;;;;;;8.95;6.75;;;;;;;;;;5006253;28;20040;-63
2021/10/08 06:28:17;;;;;;;7.70;6.25;;;;;;;;;;4999364;28;20036;-61
2021/10/08 06:31:01;;;;;;;9.80;6.68;;;;;;;;;;5002692;28;20060;-62
2021/10/08 06:33:45;;;;;;;9.57;6.40;;;;;;;;;;5001526;28;20045;-60
2021/10/08 06:36:29;;;;;;;11.18;7.10;;;;;;;;;;5001818;28;20253;-62
2021/10/08 06:39:13;;;;;;;12.07;7.75;;;;;;;;;;5000697;28;20131;-67
2021/10/08 06:41:57;;;;;;;10.02;7.13;;;;;;;;;;5000905;28;20132;-69
2021/10/08 06:44:41;;;;;;;13.77;8.63;;;;;;;;;;5003214;28;20080;-70
2021/10/08 06:47:25;;;;;;;11.85;8.60;;;;;;;;;;5006880;28;20119;-68
2021/10/08 06:50:09;;;;;;;20.73;12.18;;;;;;;;;;5000831;28;20032;-70
2021/10/08 06:52:53;;;;;;;11.93;8.07;;;;;;;;;;4998247;28;20096;-67
2021/10/08 06:55:37;;;;;;;11.65;7.38;;;;;;;;;;4996186;28;20049;-66
2021/10/08 06:58:21;;;;;;;12.70;8.23;;;;;;;;;;5004865;28;20032;-65
2021/10/08 07:01:05;;;;;;;14.55;8.32;;;;;;;;;;4997545;28;20052;-61
2021/10/08 07:03:49;;;;;;;9.55;7.40;;;;;;;;;;5003847;28;20483;-61
2021/10/08 07:06:33;;;;;;;10.63;7.25;;;;;;;;;;5003896;28;20040;-64
2021/10/08 07:09:17;;;;;;;13.07;8.30;;;;;;;;;;5012515;28;20040;-63
2021/10/08 07:12:01;;;;;;;11.68;8.05;;;;;;;;;;4998789;28;20198;-62
2021/10/08 07:14:46;;;;;;;11.95;7.75;;;;;;;;;;5005991;28;20085;-64
2021/10/08 07:17:30;;;;;;;13.30;10.02;;;;;;;;;;5007293;28;20045;-62
2021/10/08 07:20:18;;;;;;;13.35;8.85;;;;;;;;;;4996964;28;20040;-62
2021/10/08 07:23:02;;;;;;;11.98;9.90;;;;;;;;;;5001771;28;20085;-62
2021/10/08 07:25:46;;;;;;;13.48;9.65;;;;;;;;;;5001547;28;20045;-64
2021/10/08 07:28:30;;;;;;;59.53;45.78;;;;;;;;;;5000613;28;20657;-63
2021/10/08 07:31:14;;;;;;;43.80;33.47;;;;;;;;;;5003945;28;20711;-62
2021/10/08 07:33:58;;;;;;;17.55;14.57;;;;;;;;;;5008689;28;20016;-62
2021/10/08 07:36:41;;;;;;;15.60;10.60;;;;;;;;;;5006951;28;20080;-64
2021/10/08 07:39:25;;;;;;;14.70;11.35;;;;;;;;;;5003487;28;20031;-67
2021/10/08 07:42:09;;;;;;;15.70;11.63;;;;;;;;;;5002320;28;20396;-65
2021/10/08 07:44:53;;;;;;;14.60;12.25;;;;;;;;;;4999243;28;20052;-65
2021/10/08 07:47:38;;;;;;;18.13;12.38;;;;;;;;;;5002552;28;20033;-65
2021/10/08 07:50:22;;;;;;;16.08;13.43;;;;;;;;;;5004272;28;20109;-64
2021/10/08 07:53:06;;;;;;;15.65;12.60;;;;;;;;;;5004015;28;20044;-68
2021/10/08 07:55:50;;;;;;;14.57;12.13;;;;;;;;;;5004455;28;20037;-66
2021/10/08 07:58:34;;;;;;;18.15;12.32;;;;;;;;;;5005386;28;20041;-65
2021/10/08 08:01:17;;;;;;;17.05;12.50;;;;;;;;;;5008037;28;20087;-68
2021/10/08 08:04:01;;;;;;;61.53;48.35;;;;;;;;;;5005953;28;20101;-68
2021/10/08 08:06:45;;;;;;;22.65;16.02;;;;;;;;;;4994564;28;20049;-68
2021/10/08 08:09:29;;;;;;;14.77;11.23;;;;;;;;;;5000751;28;20084;-64
2021/10/08 08:12:13;;;;;;;28.75;13.00;;;;;;;;;;5007800;28;20364;-62
2021/10/08 08:14:57;;;;;;;13.27;10.88;;;;;;;;;;4997138;28;20501;-65
2021/10/08 08:17:41;;;;;;;29.65;12.88;;;;;;;;;;5001284;28;20406;-65
2021/10/08 08:20:25;;;;;;;14.30;10.52;;;;;;;;;;5009097;28;20103;-63
2021/10/08 08:23:09;;;;;;;14.98;10.82;;;;;;;;;;5002207;28;20252;-63
2021/10/08 08:25:54;;;;;;;15.57;11.05;;;;;;;;;;5003178;28;20037;-63
2021/10/08 08:28:38;;;;;;;17.48;10.20;;;;;;;;;;5001162;28;20103;-70
2021/10/08 08:31:22;;;;;;;13.77;9.13;;;;;;;;;;5005576;28;20243;-66
2021/10/08 08:34:06;;;;;;;12.75;10.02;;;;;;;;;;5007670;28;20053;-64
2021/10/08 08:36:51;;;;;;;11.60;9.10;;;;;;;;;;4983997;28;20096;-65
2021/10/08 08:39:38;;;;;;;14.57;8.77;;;;;;;;;;4998670;28;20088;-65
2021/10/08 08:42:22;;;;;;;17.15;13.65;;;;;;;;;;5000683;28;20038;-64
2021/10/08 08:45:06;;;;;;;18.15;13.35;;;;;;;;;;5012050;28;20401;-64
2021/10/08 08:48:07;;;;;;;17.00;9.10;;;;;;;;;;5005011;28;20385;-69
2021/10/08 08:50:51;;;;;;;14.68;8.70;;;;;;;;;;5006373;28;20538;-63
2021/10/08 08:53:36;;;;;;;13.38;8.35;;;;;;;;;;4999391;28;20068;-65
2021/10/08 08:56:20;;;;;;;12.77;9.60;;;;;;;;;;5003274;28;20053;-63
2021/10/08 08:59:05;;;;;;;13.50;9.32;;;;;;;;;;5003670;28;20492;-65
2021/10/08 09:01:58;;;;;;;15.73;9.05;;;;;;;;;;4997449;28;20068;-64
2021/10/08 09:04:42;;;;;;;13.13;9.60;;;;;;;;;;5007000;28;20028;-64
2021/10/08 09:07:30;;;;;;;13.45;9.80;;;;;;;;;;5006210;28;20024;-63
2021/10/08 09:10:22;;;;;;;13.45;9.60;;;;;;;;;;5001295;28;20720;-62
2021/10/08 09:13:06;;;;;;;15.50;9.98;;;;;;;;;;4996404;28;20210;-64
2021/10/08 09:15:55;;;;;;;16.15;10.27;;;;;;;;;;5000223;28;20488;-63
2021/10/08 09:18:49;;;;;;;15.38;9.60;;;;;;;;;;5011667;28;20116;-65
2021/10/08 09:21:32;;;;;;;15.40;10.27;;;;;;;;;;5004089;28;20191;-64
2021/10/08 09:24:21;;;;;;;15.38;10.05;;;;;;;;;;5005890;28;20088;-64
2021/10/08 09:27:12;;;;;;;14.05;10.05;;;;;;;;;;4989162;28;20076;-63
2021/10/08 09:29:56;;;;;;;14.23;9.50;;;;;;;;;;5002562;28;20045;-63
2021/10/08 09:32:42;;;;;;;13.77;9.75;;;;;;;;;;5004425;28;20049;-64
2021/10/08 09:35:26;;;;;;;13.90;9.90;;;;;;;;;;5002736;28;20041;-64
2021/10/08 09:38:13;;;;;;;14.43;10.23;;;;;;;;;;4999869;28;20540;-63
2021/10/08 09:41:00;;;;;;;17.77;9.55;;;;;;;;;;5007964;28;20306;-63
2021/10/08 09:43:44;;;;;;;11.65;9.98;;;;;;;;;;5005505;28;20044;-69
2021/10/08 09:46:28;;;;;;;14.13;9.40;;;;;;;;;;5005609;28;20048;-63
2021/10/08 09:49:19;;;;;;;12.80;9.80;;;;;;;;;;5000453;28;20401;-64
2021/10/08 09:52:22;;;;;;;12.88;9.05;;;;;;;;;;5007866;28;20087;-64
2021/10/08 09:55:10;;;;;;;11.75;9.52;;;;;;;;;;4998141;28;20033;-64
2021/10/08 09:57:59;;;;;;;11.48;8.77;;;;;;;;;;5010606;28;20103;-63
2021/10/08 10:00:46;;;;;;;17.40;10.23;;;;;;;;;;4997496;28;20184;-66
2021/10/08 10:03:31;;;;;;;22.23;15.07;;;;;;;;;;4998248;28;20025;-63
2021/10/08 10:06:15;;;;;;;22.70;10.55;;;;;;;;;;5008285;28;20068;-62
2021/10/08 10:09:02;;;;;;;16.75;11.27;;;;;;;;;;5002302;28;20044;-62
2021/10/08 10:11:46;;;;;;;14.30;10.40;;;;;;;;;;5004381;28;20053;-62
2021/10/08 10:14:30;;;;;;;14.10;10.02;;;;;;;;;;5002841;28;20420;-62
2021/10/08 10:17:15;;;;;;;13.13;9.95;;;;;;;;;;5003849;28;20091;-61
2021/10/08 10:19:59;;;;;;;13.95;9.95;;;;;;;;;;4984947;28;20061;-61
2021/10/08 10:22:43;;;;;;;16.63;10.10;;;;;;;;;;5001021;28;20033;-62
2021/10/08 10:25:27;;;;;;;13.65;9.27;;;;;;;;;;5002915;28;20157;-64
2021/10/08 10:28:11;;;;;;;12.80;8.93;;;;;;;;;;5007268;28;22692;-62
2021/10/08 10:30:55;;;;;;;12.88;9.38;;;;;;;;;;5002683;28;20048;-63
2021/10/08 10:33:39;;;;;;;14.60;9.25;;;;;;;;;;5005584;28;20036;-61
2021/10/08 10:36:27;;;;;;;12.55;9.55;;;;;;;;;;5001678;28;20556;-64
2021/10/08 10:39:11;;;;;;;17.52;12.55;;;;;;;;;;5006165;28;20503;-65
2021/10/08 10:42:02;;;;;;;15.52;10.60;;;;;;;;;;4995306;28;20545;-66
2021/10/08 10:45:23;;;;;;;15.35;8.98;;;;;;;;;;5002149;28;20052;-62
2021/10/08 10:48:10;;;;;;;14.18;9.77;;;;;;;;;;5003479;28;20113;-65
2021/10/08 10:51:18;;;;;;;12.52;8.88;;;;;;;;;;5003669;28;20099;-62
2021/10/08 10:54:02;;;;;;;12.75;9.57;;;;;;;;;;5012278;28;20261;-64
2021/10/08 10:56:46;;;;;;;11.70;9.32;;;;;;;;;;4998900;28;20028;-63
2021/10/08 10:59:31;;;;;;;11.27;9.40;;;;;;;;;;5003975;28;20072;-62
2021/10/08 11:02:25;;;;;;;15.82;10.48;;;;;;;;;;5005401;28;20480;-60
2021/10/08 11:05:22;;;;;;;12.48;9.43;;;;;;;;;;5001136;28;20068;-60
2021/10/08 11:08:16;;;;;;;14.75;10.68;;;;;;;;;;4994277;28;20024;-59
2021/10/08 11:11:00;;;;;;;15.38;9.13;;;;;;;;;;5005638;28;20121;-61
2021/10/08 11:13:45;;;;;;;14.25;8.98;;;;;;;;;;5003685;28;20064;-67
2021/10/08 11:16:30;;;;;;;13.90;8.40;;;;;;;;;;5003886;28;20421;-60
2021/10/08 11:19:34;;;;;;;12.90;9.32;;;;;;;;;;5005920;28;20033;-63
2021/10/08 11:22:17;;;;;;;13.27;9.00;;;;;;;;;;5003892;28;20136;-62
2021/10/08 11:25:03;;;;;;;11.48;9.02;;;;;;;;;;5003541;28;20054;-64
2021/10/08 11:27:47;;;;;;;13.82;9.02;;;;;;;;;;5010674;28;20552;-62
2021/10/08 11:30:31;;;;;;;13.35;8.70;;;;;;;;;;5003346;28;20152;-62
2021/10/08 11:33:15;;;;;;;18.00;9.23;;;;;;;;;;5004499;28;20502;-66
2021/10/08 11:36:09;;;;;;;17.10;9.40;;;;;;;;;;5002974;28;20509;-68
2021/10/08 11:39:07;;;;;;;12.88;9.18;;;;;;;;;;4997168;28;20124;-65
2021/10/08 11:42:00;;;;;;;13.60;8.88;;;;;;;;;;5004181;28;20040;-67
2021/10/08 11:45:08;;;;;;;12.93;8.52;;;;;;;;;;4999225;28;20041;-65
2021/10/08 11:47:55;;;;;;;12.77;8.32;;;;;;;;;;4994084;28;20036;-69
2021/10/08 11:53:23;;;;;;;13.68;9.50;;;;;;;;;;5004693;28;20125;-66
2021/10/08 11:56:27;;;;;;;13.98;9.15;;;;;;;;;;5005146;28;20029;-70
2021/10/08 11:59:11;;;;;;;14.57;9.27;;;;;;;;;;5017358;28;20032;-68
2021/10/08 12:02:15;;;;;;;13.20;9.35;;;;;;;;;;5001993;28;20396;-68
2021/10/08 12:04:59;;;;;;;13.63;10.38;;;;;;;;;;4997710;28;20488;-69
2021/10/08 12:07:51;;;;;;;13.07;9.52;;;;;;;;;;4997757;28;20041;-72
2021/10/08 12:10:35;;;;;;;14.45;9.30;;;;;;;;;;5000827;28;20485;-64
2021/10/08 12:13:20;;;;;;;13.13;8.93;;;;;;;;;;5003642;28;20138;-68
2021/10/08 12:16:04;;;;;;;13.50;9.43;;;;;;;;;;4997864;28;20037;-67
2021/10/08 12:18:52;;;;;;;14.10;9.55;;;;;;;;;;5001240;28;20088;-68
2021/10/08 12:21:38;;;;;;;15.05;8.57;;;;;;;;;;5000666;28;20165;-70
2021/10/08 12:24:23;;;;;;;14.18;9.07;;;;;;;;;;5007184;28;20068;-67
2021/10/08 12:27:07;;;;;;;12.50;8.75;;;;;;;;;;4999487;28;20100;-68
2021/10/08 12:29:53;;;;;;;15.32;8.88;;;;;;;;;;5000774;28;20367;-72
2021/10/08 12:32:36;;;;;;;12.88;9.07;;;;;;;;;;5004882;28;20037;-72
2021/10/08 12:35:21;;;;;;;14.45;8.15;;;;;;;;;;5004900;28;20092;-70
2021/10/08 12:38:05;;;;;;;16.20;9.07;;;;;;;;;;5000070;28;20044;-72
2021/10/08 12:40:49;;;;;;;14.98;10.23;;;;;;;;;;4998331;28;20121;-72
2021/10/08 12:43:33;;;;;;;14.85;10.20;;;;;;;;;;5000195;28;20308;-70
2021/10/08 12:46:21;;;;;;;13.60;8.10;;;;;;;;;;5003060;28;20440;-62
2021/10/08 12:49:06;;;;;;;14.73;10.05;;;;;;;;;;4993058;28;20040;-67
2021/10/08 12:51:51;;;;;;;15.57;9.07;;;;;;;;;;4997680;28;20556;-61
2021/10/08 12:54:35;;;;;;;13.40;9.25;;;;;;;;;;5002305;28;20072;-64
2021/10/08 12:57:20;;;;;;;14.10;8.90;;;;;;;;;;5000425;28;20096;-63
2021/10/08 13:00:04;;;;;;;14.68;10.23;;;;;;;;;;5006332;28;20452;-62
2021/10/08 13:02:48;;;;;;;12.90;9.45;;;;;;;;;;5008861;28;20109;-62
2021/10/08 13:05:39;;;;;;;16.48;9.25;;;;;;;;;;4997339;28;20437;-67
2021/10/08 13:08:25;;;;;;;15.55;8.85;;;;;;;;;;5007500;28;20159;-62
2021/10/08 13:11:11;;;;;;;13.95;9.32;;;;;;;;;;4989440;28;20025;-63
2021/10/08 13:13:54;;;;;;;29.63;23.20;;;;;;;;;;5005716;28;20124;-61
2021/10/08 13:16:38;;;;;;;15.50;10.80;;;;;;;;;;5004683;28;20076;-62
2021/10/08 13:19:30;;;;;;;14.18;9.40;;;;;;;;;;4994052;28;20036;-64
2021/10/08 13:22:34;;;;;;;;;;;;;;;;;;;;;
2021/10/08 13:25:18;;;;;;;14.75;9.82;;;;;;;;;;5004349;28;20496;-64
2021/10/08 13:28:02;;;;;;;12.57;9.30;;;;;;;;;;5007383;28;20080;-64
2021/10/08 13:31:05;;;;;;;11.65;8.50;;;;;;;;;;5005875;28;20064;-62
2021/10/08 13:33:48;;;;;;;14.05;9.30;;;;;;;;;;5007762;28;20305;-64
2021/10/08 13:36:32;;;;;;;16.40;9.52;;;;;;;;;;5005709;28;20034;-64
2021/10/08 13:39:16;;;;;;;14.32;9.38;;;;;;;;;;5002558;28;20507;-63
2021/10/08 13:42:01;;;;;;;14.10;8.57;;;;;;;;;;4998329;28;20036;-64
2021/10/08 13:44:45;;;;;;;14.38;9.48;;;;;;;;;;4998678;28;20057;-63
2021/10/08 13:47:29;;;;;;;11.70;9.07;;;;;;;;;;4995746;28;20095;-63
2021/10/08 13:50:13;;;;;;;12.07;8.32;;;;;;;;;;4999824;28;20037;-63
2021/10/08 13:52:57;;;;;;;12.50;7.82;;;;;;;;;;4998380;28;20540;-64
2021/10/08 13:55:41;;;;;;;15.13;9.70;;;;;;;;;;4991433;28;20033;-63
2021/10/08 13:58:25;;;;;;;12.52;9.25;;;;;;;;;;4999071;28;20045;-63
2021/10/08 14:01:09;;;;;;;15.25;9.20;;;;;;;;;;4997592;28;20056;-71
2021/10/08 14:04:10;;;;;;;14.50;8.93;;;;;;;;;;5003856;28;20033;-69
2021/10/08 14:12:45;;;;;;;12.30;9.50;;;;;;;;;;5000987;28;20069;-72
2021/10/08 14:15:30;;;;;;;11.30;8.13;;;;;;;;;;5000116;28;20049;-71
2021/10/08 14:18:14;;;;;;;13.60;8.35;;;;;;;;;;5001210;28;20025;-70
2021/10/08 14:20:58;;;;;;;10.85;8.88;;;;;;;;;;4998006;28;20088;-74
2021/10/08 14:23:43;;;;;;;17.02;7.82;;;;;;;;;;5001316;28;20073;-71
2021/10/08 14:26:27;;;;;;;11.90;8.68;;;;;;;;;;4995343;28;20061;-71
2021/10/08 14:29:13;;;;;;;13.48;9.15;;;;;;;;;;5005046;28;20245;-72
2021/10/08 14:31:57;;;;;;;14.93;11.15;;;;;;;;;;5002562;28;20049;-76
2021/10/08 14:34:41;;;;;;;20.85;15.00;;;;;;;;;;5002821;28;20080;-75
2021/10/08 14:37:24;;;;;;;13.60;8.30;;;;;;;;;;4998630;28;20512;-65
2021/10/08 14:40:09;;;;;;;10.73;8.27;;;;;;;;;;5010832;28;20076;-64
2021/10/08 14:42:53;;;;;;;11.15;7.97;;;;;;;;;;5000915;28;20485;-64
2021/10/08 14:45:37;;;;;;;14.10;8.07;;;;;;;;;;5001027;28;20511;-65
2021/10/08 14:48:21;;;;;;;11.25;7.45;;;;;;;;;;4996308;28;20091;-67
2021/10/08 14:51:05;;;;;;;10.75;7.47;;;;;;;;;;5004870;28;20041;-67
2021/10/08 14:53:49;;;;;;;14.38;7.97;;;;;;;;;;5004394;28;20048;-61
2021/10/08 14:59:26;;;;;;;14.10;8.60;;;;;;;;;;5004507;28;20308;-75
2021/10/08 15:02:10;;;;;;;14.38;9.15;;;;;;;;;;4998318;28;20041;-74
2021/10/08 15:04:54;;;;;;;13.13;8.18;;;;;;;;;;5003537;28;20052;-79
2021/10/08 15:07:38;;;;;;;18.30;13.82;;;;;;;;;;4998656;28;20479;-76
2021/10/08 15:10:22;;;;;;;14.75;10.40;;;;;;;;;;5008809;28;20343;-78
2021/10/08 15:13:05;;;;;;;14.00;8.73;;;;;;;;;;4998689;28;20081;-63
2021/10/08 15:15:50;;;;;;;12.63;8.93;;;;;;;;;;5000726;28;20033;-63
2021/10/08 15:18:33;;;;;;;12.48;9.32;;;;;;;;;;4998431;28;20051;-63
2021/10/08 15:21:17;;;;;;;15.48;9.90;;;;;;;;;;5002129;28;20087;-63
2021/10/08 15:24:01;;;;;;;13.98;9.15;;;;;;;;;;5001516;28;20132;-64
2021/10/08 15:26:45;;;;;;;14.68;9.35;;;;;;;;;;5004688;28;20133;-66
2021/10/08 15:29:29;;;;;;;14.70;10.05;;;;;;;;;;5006959;28;20425;-62
2021/10/08 15:32:13;;;;;;;14.75;9.85;;;;;;;;;;4999930;28;20373;-70
2021/10/08 15:34:58;;;;;;;15.85;11.38;;;;;;;;;;4997933;28;20092;-63
2021/10/08 15:37:42;;;;;;;15.45;10.63;;;;;;;;;;5008836;28;20024;-62
2021/10/08 15:40:27;;;;;;;15.35;11.15;;;;;;;;;;5000489;28;20562;-63
2021/10/08 15:43:10;;;;;;;15.13;11.07;;;;;;;;;;5017750;28;20028;-63
2021/10/08 15:45:54;;;;;;;17.50;10.43;;;;;;;;;;5001896;28;20076;-59
2021/10/08 15:48:38;;;;;;;15.48;9.95;;;;;;;;;;5001912;28;20033;-60
2021/10/08 15:51:22;;;;;;;15.43;10.65;;;;;;;;;;5008966;28;20032;-67
2021/10/08 15:54:06;;;;;;;12.85;10.00;;;;;;;;;;5004213;28;20117;-65
2021/10/08 15:56:50;;;;;;;13.52;10.10;;;;;;;;;;5009094;28;20037;-62
2021/10/08 15:59:34;;;;;;;15.05;10.35;;;;;;;;;;5006926;28;20072;-66
2021/10/08 16:02:18;;;;;;;13.95;10.20;;;;;;;;;;5005583;28;20351;-63
2021/10/08 16:05:02;;;;;;;15.38;9.95;;;;;;;;;;4999884;28;20034;-62
2021/10/08 16:07:46;;;;;;;14.27;10.30;;;;;;;;;;5005834;28;20100;-67
2021/10/08 16:10:30;;;;;;;12.25;10.15;;;;;;;;;;5002446;28;20527;-62
2021/10/08 16:13:14;;;;;;;13.40;10.02;;;;;;;;;;5009131;28;20060;-63
2021/10/08 16:15:59;;;;;;;14.07;9.25;;;;;;;;;;5016583;28;20056;-62
2021/10/08 16:18:46;;;;;;;16.30;10.75;;;;;;;;;;5008910;28;20392;-61
2021/10/08 16:21:30;;;;;;;15.68;10.77;;;;;;;;;;5000140;28;20532;-62
2021/10/08 16:24:14;;;;;;;16.83;10.10;;;;;;;;;;5007444;28;20053;-61
2021/10/08 16:26:58;;;;;;;14.98;10.68;;;;;;;;;;5003400;28;20064;-68
2021/10/08 16:29:42;;;;;;;16.63;10.43;;;;;;;;;;5004556;28;20033;-62
2021/10/08 16:32:26;;;;;;;14.38;10.30;;;;;;;;;;5007591;28;20132;-61